createdAt,value
2023-12-16T00:01:00.667Z,5.84
2023-12-16T00:03:36.971Z,5.84
2023-12-16T00:06:04.426Z,5.84
2023-12-16T00:08:31.319Z,5.85
2023-12-16T00:10:58.357Z,5.86
2023-12-16T00:13:25.842Z,5.88
2023-12-16T00:15:52.773Z,5.89
2023-12-16T00:18:19.865Z,5.90
2023-12-16T00:20:47.176Z,5.91
2023-12-16T00:23:14.005Z,5.91
2023-12-16T00:25:40.774Z,5.92
2023-12-16T00:28:07.764Z,5.92
2023-12-16T00:30:34.590Z,5.91
2023-12-16T00:33:01.578Z,5.89
2023-12-16T00:35:28.619Z,5.89
2023-12-16T00:37:55.403Z,5.90
2023-12-16T00:40:22.242Z,5.90
2023-12-16T00:42:49.157Z,5.92
2023-12-16T00:45:17.410Z,5.91
2023-12-16T00:50:12.763Z,5.89
2023-12-16T00:52:39.523Z,5.88
2023-12-16T00:55:07.045Z,5.88
2023-12-16T00:57:33.918Z,5.89
2023-12-16T01:00:00.714Z,5.91
2023-12-16T01:02:27.652Z,5.92
2023-12-16T01:04:54.477Z,5.93
2023-12-16T01:07:21.322Z,5.94
2023-12-16T01:09:51.283Z,5.94
2023-12-16T01:12:18.748Z,5.95
2023-12-16T01:14:45.618Z,5.95
2023-12-16T01:17:12.702Z,5.95
2023-12-16T01:19:39.575Z,5.96
2023-12-16T01:22:06.379Z,5.95
2023-12-16T01:24:37.457Z,5.95
2023-12-16T01:27:07.064Z,5.95
2023-12-16T01:29:34.078Z,5.95
2023-12-16T01:32:00.826Z,5.94
2023-12-16T01:34:27.687Z,5.95
2023-12-16T01:36:54.554Z,5.95
2023-12-16T01:39:21.486Z,5.95
2023-12-16T01:41:48.318Z,5.95
2023-12-16T01:44:15.200Z,5.95
2023-12-16T01:46:43.058Z,5.94
2023-12-16T01:49:10.740Z,5.94
2023-12-16T01:51:38.206Z,5.95
2023-12-16T01:54:06.664Z,5.95
2023-12-16T01:56:33.903Z,5.95
2023-12-16T01:59:00.887Z,5.98
2023-12-16T02:01:28.142Z,6.01
2023-12-16T02:03:56.837Z,6.01
2023-12-16T02:06:25.464Z,6.03
2023-12-16T02:08:52.565Z,6.05
2023-12-16T02:11:19.328Z,6.06
2023-12-16T02:13:46.133Z,6.06
2023-12-16T02:16:13.036Z,6.06
2023-12-16T02:18:39.969Z,6.07
2023-12-16T02:21:06.930Z,6.07
2023-12-16T02:23:33.911Z,6.05
2023-12-16T02:26:01.525Z,6.06
2023-12-16T02:28:28.431Z,6.08
2023-12-16T02:30:55.373Z,6.09
2023-12-16T02:33:22.573Z,6.11
2023-12-16T02:35:49.419Z,6.11
2023-12-16T02:38:16.369Z,6.12
2023-12-16T02:40:44.001Z,6.14
2023-12-16T02:43:10.905Z,6.16
2023-12-16T02:45:38.278Z,6.16
2023-12-16T02:48:05.666Z,6.18
2023-12-16T02:50:32.551Z,6.18
2023-12-16T02:53:00.446Z,6.17
2023-12-16T02:55:27.294Z,6.17
2023-12-16T02:57:54.190Z,6.16
2023-12-16T03:00:21.049Z,6.17
2023-12-16T03:02:47.885Z,6.17
2023-12-16T03:05:14.767Z,6.19
2023-12-16T03:07:41.808Z,6.19
2023-12-16T03:10:09.122Z,6.20
2023-12-16T03:12:36.072Z,6.19
2023-12-16T03:15:04.312Z,6.18
2023-12-16T03:17:31.172Z,6.17
2023-12-16T03:19:58.136Z,6.17
2023-12-16T03:22:24.961Z,6.16
2023-12-16T03:24:51.831Z,6.16
2023-12-16T03:27:18.621Z,6.16
2023-12-16T03:29:45.399Z,6.16
2023-12-16T03:32:12.253Z,6.15
2023-12-16T03:34:39.073Z,6.14
2023-12-16T03:37:05.892Z,6.14
2023-12-16T03:39:32.612Z,6.14
2023-12-16T03:41:59.365Z,6.14
2023-12-16T03:44:26.195Z,6.14
2023-12-16T03:46:52.927Z,6.14
2023-12-16T03:49:19.816Z,6.15
2023-12-16T03:51:46.737Z,6.16
2023-12-16T03:54:13.506Z,6.17
2023-12-16T03:56:40.259Z,6.17
2023-12-16T03:59:07.099Z,6.18
2023-12-16T04:01:33.942Z,6.20
2023-12-16T04:04:00.912Z,6.20
2023-12-16T04:06:27.824Z,6.20
2023-12-16T04:08:54.569Z,6.20
2023-12-16T04:11:21.372Z,6.19
2023-12-16T04:13:49.429Z,6.20
2023-12-16T04:16:16.249Z,6.21
2023-12-16T04:18:44.196Z,6.22
2023-12-16T04:21:11.078Z,6.22
2023-12-16T04:23:37.814Z,6.23
2023-12-16T04:26:07.687Z,6.24
2023-12-16T04:28:35.323Z,6.25
2023-12-16T04:31:02.220Z,6.26
2023-12-16T04:33:29.107Z,6.28
2023-12-16T04:35:55.949Z,6.29
2023-12-16T04:38:22.679Z,6.29
2023-12-16T04:40:49.445Z,6.29
2023-12-16T04:43:16.781Z,6.29
2023-12-16T04:45:43.794Z,6.27
2023-12-16T04:48:10.796Z,6.24
2023-12-16T04:50:37.710Z,6.22
2023-12-16T04:53:04.538Z,6.22
2023-12-16T04:55:31.349Z,6.21
2023-12-16T04:57:58.238Z,6.22
2023-12-16T05:00:25.061Z,6.24
2023-12-16T05:02:51.807Z,6.25
2023-12-16T05:05:18.741Z,6.28
2023-12-16T05:07:45.610Z,6.29
2023-12-16T05:10:12.438Z,6.29
2023-12-16T05:12:40.736Z,6.29
2023-12-16T05:15:08.152Z,6.25
2023-12-16T05:17:35.056Z,6.21
2023-12-16T05:20:02.233Z,6.15
2023-12-16T05:22:34.024Z,6.10
2023-12-16T05:25:02.700Z,6.07
2023-12-16T05:27:29.540Z,6.02
2023-12-16T05:30:01.056Z,5.99
2023-12-16T05:32:28.083Z,5.97
2023-12-16T05:34:55.681Z,5.96
2023-12-16T05:37:22.753Z,5.97
2023-12-16T05:39:49.550Z,5.97
2023-12-16T05:42:16.394Z,5.98
2023-12-16T05:44:43.165Z,5.99
2023-12-16T05:47:10.077Z,6.00
2023-12-16T05:49:36.978Z,5.99
2023-12-16T05:52:04.651Z,6.00
2023-12-16T05:54:31.432Z,6.00
2023-12-16T05:56:58.284Z,6.01
2023-12-16T05:59:25.364Z,6.03
2023-12-16T06:01:52.210Z,6.05
2023-12-16T06:04:19.173Z,6.07
2023-12-16T06:06:45.976Z,6.09
2023-12-16T06:09:13.315Z,6.11
2023-12-16T06:11:40.268Z,6.13
2023-12-16T06:14:07.272Z,6.13
2023-12-16T06:16:34.090Z,6.14
2023-12-16T06:19:03.133Z,6.16
2023-12-16T06:21:30.539Z,6.19
2023-12-16T06:24:00.848Z,6.20
2023-12-16T06:26:27.756Z,6.20
2023-12-16T06:28:54.526Z,6.20
2023-12-16T06:31:21.883Z,6.22
2023-12-16T06:33:48.807Z,6.24
2023-12-16T06:36:15.875Z,6.24
2023-12-16T06:38:42.904Z,6.24
2023-12-16T06:41:09.904Z,6.26
2023-12-16T06:43:36.972Z,6.29
2023-12-16T06:46:03.989Z,6.32
2023-12-16T06:48:30.995Z,6.34
2023-12-16T06:50:58.638Z,6.35
2023-12-16T06:53:26.355Z,6.35
2023-12-16T06:55:54.018Z,6.38
2023-12-16T06:58:21.728Z,6.44
2023-12-16T07:00:48.971Z,6.46
2023-12-16T07:03:17.089Z,6.48
2023-12-16T07:05:44.094Z,6.53
2023-12-16T07:08:13.666Z,6.74
2023-12-16T07:10:40.486Z,6.85
2023-12-16T07:13:08.426Z,6.82
2023-12-16T07:15:35.412Z,6.77
2023-12-16T07:18:03.471Z,6.76
2023-12-16T07:20:31.133Z,6.74
2023-12-16T07:22:58.030Z,6.76
2023-12-16T07:25:24.953Z,6.79
2023-12-16T07:27:51.846Z,6.83
2023-12-16T07:30:18.941Z,6.81
2023-12-16T07:32:46.067Z,6.90
2023-12-16T07:35:16.091Z,6.93
2023-12-16T07:37:43.577Z,6.96
2023-12-16T07:40:11.399Z,7.02
2023-12-16T07:42:40.910Z,7.07
2023-12-16T07:45:09.041Z,7.09
2023-12-16T07:47:36.367Z,7.06
2023-12-16T07:50:04.262Z,7.05
2023-12-16T07:52:31.405Z,7.04
2023-12-16T07:54:58.288Z,7.05
2023-12-16T07:57:25.160Z,7.06
2023-12-16T07:59:54.335Z,7.06
2023-12-16T08:02:21.514Z,7.08
2023-12-16T08:04:49.875Z,7.09
2023-12-16T08:07:16.698Z,7.11
2023-12-16T08:09:43.434Z,7.14
2023-12-16T08:12:10.585Z,7.18
2023-12-16T08:14:37.796Z,7.21
2023-12-16T08:17:04.533Z,7.23
2023-12-16T08:19:31.378Z,7.28
2023-12-16T08:22:00.304Z,7.31
2023-12-16T08:24:27.156Z,7.35
2023-12-16T08:26:54.012Z,7.39
2023-12-16T08:29:21.311Z,7.43
2023-12-16T08:31:48.278Z,7.46
2023-12-16T08:34:15.392Z,7.49
2023-12-16T08:36:42.405Z,7.53
2023-12-16T08:39:09.152Z,7.58
2023-12-16T08:41:36.627Z,7.65
2023-12-16T08:44:03.927Z,7.72
2023-12-16T08:46:30.799Z,7.76
2023-12-16T08:48:58.547Z,7.83
2023-12-16T08:51:26.275Z,7.92
2023-12-16T08:53:53.745Z,7.99
2023-12-16T08:56:20.623Z,8.04
2023-12-16T08:58:47.745Z,8.11
2023-12-16T09:01:14.733Z,8.14
2023-12-16T09:03:45.130Z,8.15
2023-12-16T09:06:12.101Z,8.17
2023-12-16T09:08:39.306Z,8.17
2023-12-16T09:11:06.147Z,8.18
2023-12-16T09:13:33.288Z,8.16
2023-12-16T09:16:00.261Z,8.14
2023-12-16T09:18:27.389Z,8.12
2023-12-16T09:20:54.350Z,8.13
2023-12-16T09:23:21.491Z,8.17
2023-12-16T09:25:48.664Z,8.18
2023-12-16T09:28:15.974Z,8.17
2023-12-16T09:30:42.985Z,8.15
2023-12-16T09:33:09.859Z,8.17
2023-12-16T09:35:36.967Z,8.20
2023-12-16T09:38:03.930Z,8.23
2023-12-16T09:40:30.899Z,8.29
2023-12-16T09:43:14.597Z,8.36
2023-12-16T09:45:44.814Z,8.46
2023-12-16T09:48:11.739Z,8.55
2023-12-16T09:50:39.070Z,8.62
2023-12-16T09:53:05.896Z,8.68
2023-12-16T09:55:32.979Z,8.70
2023-12-16T09:58:03.278Z,8.68
2023-12-16T10:00:31.990Z,8.67
2023-12-16T10:02:59.746Z,8.65
2023-12-16T10:05:29.130Z,8.67
2023-12-16T10:08:05.083Z,8.66
2023-12-16T10:10:32.029Z,8.64
2023-12-16T10:13:05.327Z,8.65
2023-12-16T10:15:33.513Z,8.65
2023-12-16T10:18:02.483Z,8.66
2023-12-16T10:20:30.744Z,8.68
2023-12-16T10:23:01.472Z,8.68
2023-12-16T10:25:31.510Z,8.70
2023-12-16T10:28:01.228Z,8.71
2023-12-16T10:30:28.330Z,8.73
2023-12-16T10:33:02.825Z,8.75
2023-12-16T10:35:30.765Z,8.74
2023-12-16T10:37:57.619Z,8.72
2023-12-16T10:40:25.011Z,8.70
2023-12-16T10:42:54.092Z,8.71
2023-12-16T10:45:21.309Z,8.73
2023-12-16T10:47:50.806Z,8.73
2023-12-16T10:50:21.567Z,8.69
2023-12-16T10:52:57.107Z,8.66
2023-12-16T10:55:45.141Z,8.63
2023-12-16T10:58:24.586Z,8.58
2023-12-16T11:00:53.405Z,8.52
2023-12-16T11:03:33.202Z,8.46
2023-12-16T11:06:08.249Z,8.40
2023-12-16T11:08:36.683Z,8.37
2023-12-16T11:11:04.328Z,8.32
2023-12-16T11:13:31.908Z,8.28
2023-12-16T11:16:10.708Z,8.25
2023-12-16T11:18:40.828Z,8.23
2023-12-16T11:21:10.332Z,8.24
2023-12-16T11:23:45.298Z,8.29
2023-12-16T11:26:12.474Z,8.34
2023-12-16T11:28:39.481Z,8.35
2023-12-16T11:31:06.498Z,8.39
2023-12-16T11:33:48.935Z,8.43
2023-12-16T11:36:16.084Z,8.45
2023-12-16T11:38:44.554Z,8.49
2023-12-16T11:41:31.855Z,8.52
2023-12-16T11:43:58.672Z,8.56
2023-12-16T11:46:35.444Z,8.58
2023-12-16T11:49:04.566Z,8.59
2023-12-16T11:51:39.531Z,8.61
2023-12-16T11:54:07.589Z,8.64
2023-12-16T11:56:35.294Z,8.69
2023-12-16T11:59:03.667Z,8.74
2023-12-16T12:01:32.282Z,8.79
2023-12-16T12:04:01.332Z,8.86
2023-12-16T12:06:28.647Z,8.90
2023-12-16T12:08:55.491Z,8.91
2023-12-16T12:11:22.468Z,8.92
2023-12-16T12:13:52.221Z,8.92
2023-12-16T12:16:19.135Z,8.93
2023-12-16T12:18:46.086Z,8.93
2023-12-16T12:21:13.009Z,8.90
2023-12-16T12:23:42.770Z,8.85
2023-12-16T12:26:09.965Z,8.82
2023-12-16T12:28:37.032Z,8.79
2023-12-16T12:31:05.849Z,8.80
2023-12-16T12:33:33.852Z,8.83
2023-12-16T12:36:01.509Z,8.88
2023-12-16T12:38:29.081Z,8.93
2023-12-16T12:41:04.863Z,8.96
2023-12-16T12:43:33.919Z,8.98
2023-12-16T12:46:09.301Z,9.00
2023-12-16T12:48:37.780Z,9.01
2023-12-16T12:51:06.484Z,9.02
2023-12-16T12:53:37.362Z,9.04
2023-12-16T12:56:05.436Z,9.05
2023-12-16T12:58:33.779Z,9.06
2023-12-16T13:01:02.970Z,9.08
2023-12-16T13:03:32.002Z,9.09
2023-12-16T13:06:02.706Z,9.11
2023-12-16T13:08:31.018Z,9.13
2023-12-16T13:10:57.939Z,9.14
2023-12-16T13:13:24.821Z,9.13
2023-12-16T13:15:56.238Z,9.13
2023-12-16T13:18:26.869Z,9.16
2023-12-16T13:20:56.446Z,9.18
2023-12-16T13:23:23.527Z,9.18
2023-12-16T13:25:50.948Z,9.16
2023-12-16T13:28:18.588Z,9.16
2023-12-16T13:30:45.363Z,9.19
2023-12-16T13:33:12.329Z,9.20
2023-12-16T13:35:39.791Z,9.19
2023-12-16T13:38:06.542Z,9.14
2023-12-16T13:40:34.477Z,9.08
2023-12-16T13:43:04.284Z,9.06
2023-12-16T13:45:32.502Z,9.02
2023-12-16T13:47:59.946Z,8.99
2023-12-16T13:50:26.910Z,8.96
2023-12-16T13:52:53.825Z,8.92
2023-12-16T13:55:20.581Z,8.88
2023-12-16T13:57:47.380Z,8.86
2023-12-16T14:00:14.862Z,8.84
2023-12-16T14:02:41.719Z,8.79
2023-12-16T14:05:08.565Z,8.76
2023-12-16T14:07:37.060Z,8.72
2023-12-16T14:10:04.304Z,8.69
2023-12-16T14:12:31.138Z,8.68
2023-12-16T14:14:57.944Z,8.64
2023-12-16T14:17:24.743Z,8.61
2023-12-16T14:19:51.490Z,8.60
2023-12-16T14:22:18.640Z,8.59
2023-12-16T14:24:45.494Z,8.57
2023-12-16T14:27:12.409Z,8.54
2023-12-16T14:29:39.205Z,8.50
2023-12-16T14:32:06.285Z,8.45
2023-12-16T14:34:34.635Z,8.42
2023-12-16T14:37:01.587Z,8.35
2023-12-16T14:39:28.382Z,8.24
2023-12-16T14:41:55.103Z,8.12
2023-12-16T14:44:21.815Z,8.00
2023-12-16T14:46:48.866Z,7.89
2023-12-16T14:49:15.630Z,7.79
2023-12-16T14:51:42.467Z,7.70
2023-12-16T14:54:09.372Z,7.63
2023-12-16T14:56:36.744Z,7.56
2023-12-16T14:59:03.459Z,7.49
2023-12-16T15:01:30.192Z,7.44
2023-12-16T15:03:57.344Z,7.41
2023-12-16T15:06:30.317Z,7.39
2023-12-16T15:08:58.809Z,7.37
2023-12-16T15:11:25.603Z,7.35
2023-12-16T15:13:52.404Z,7.33
2023-12-16T15:16:20.888Z,7.34
2023-12-16T15:18:49.166Z,7.32
2023-12-16T15:21:16.950Z,7.30
2023-12-16T15:23:45.897Z,7.29
2023-12-16T15:26:12.695Z,7.25
2023-12-16T15:28:39.344Z,7.23
2023-12-16T15:31:06.226Z,7.20
2023-12-16T15:33:33.255Z,7.17
2023-12-16T15:36:00.245Z,7.14
2023-12-16T15:38:27.409Z,7.10
2023-12-16T15:40:55.957Z,7.06
2023-12-16T15:43:22.655Z,7.04
2023-12-16T15:45:49.355Z,6.99
2023-12-16T15:48:17.859Z,6.95
2023-12-16T15:50:44.898Z,6.91
2023-12-16T15:53:12.534Z,6.86
2023-12-16T15:55:39.229Z,6.82
2023-12-16T15:58:05.961Z,6.77
2023-12-16T16:00:32.676Z,6.72
2023-12-16T16:03:01.177Z,6.70
2023-12-16T16:05:28.146Z,7.08
2023-12-16T16:07:55.012Z,7.48
2023-12-16T16:10:21.901Z,7.49
2023-12-16T16:12:48.858Z,7.39
2023-12-16T16:15:17.860Z,7.31
2023-12-16T16:17:47.497Z,7.21
2023-12-16T16:20:15.237Z,7.13
2023-12-16T16:22:42.265Z,7.13
2023-12-16T16:25:10.770Z,7.10
2023-12-16T16:27:39.946Z,7.05
2023-12-16T16:30:08.762Z,7.18
2023-12-16T16:32:36.458Z,7.35
2023-12-16T16:35:07.666Z,7.40
2023-12-16T16:37:35.005Z,7.43
2023-12-16T16:40:02.070Z,7.38
2023-12-16T16:42:28.920Z,7.38
2023-12-16T16:44:56.068Z,7.41
2023-12-16T16:47:23.234Z,7.38
2023-12-16T16:49:52.021Z,7.34
2023-12-16T16:52:19.007Z,7.32
2023-12-16T16:54:45.874Z,7.34
2023-12-16T16:57:13.273Z,7.47
2023-12-16T16:59:40.295Z,7.46
2023-12-16T17:02:07.150Z,7.40
2023-12-16T17:04:33.974Z,7.35
2023-12-16T17:07:00.888Z,7.33
2023-12-16T17:09:27.809Z,7.35
2023-12-16T17:11:54.755Z,7.35
2023-12-16T17:14:21.714Z,7.34
2023-12-16T17:16:48.570Z,7.30
2023-12-16T17:19:16.429Z,7.24
2023-12-16T17:21:44.309Z,7.20
2023-12-16T17:24:12.339Z,7.18
2023-12-16T17:26:40.390Z,7.16
2023-12-16T17:29:07.318Z,7.12
2023-12-16T17:31:34.335Z,7.06
2023-12-16T17:34:01.231Z,7.03
2023-12-16T17:36:28.439Z,7.00
2023-12-16T17:38:55.264Z,6.98
2023-12-16T17:41:22.136Z,6.96
2023-12-16T17:43:48.939Z,6.95
2023-12-16T17:46:16.650Z,6.94
2023-12-16T17:48:43.563Z,6.94
2023-12-16T17:51:11.760Z,6.92
2023-12-16T17:53:38.910Z,6.91
2023-12-16T17:56:06.017Z,6.90
2023-12-16T17:58:36.243Z,6.89
2023-12-16T18:01:04.172Z,6.89
2023-12-16T18:03:30.942Z,6.88
2023-12-16T18:05:58.126Z,6.87
2023-12-16T18:08:24.890Z,6.88
2023-12-16T18:10:56.400Z,6.88
2023-12-16T18:13:23.088Z,6.87
2023-12-16T18:15:49.926Z,6.85
2023-12-16T18:18:17.955Z,6.84
2023-12-16T18:20:59.776Z,6.82
2023-12-16T18:23:29.589Z,6.80
2023-12-16T18:26:00.646Z,6.79
2023-12-16T18:28:27.485Z,6.81
2023-12-16T18:30:54.231Z,6.82
2023-12-16T18:33:21.131Z,6.81
2023-12-16T18:35:47.907Z,6.81
2023-12-16T18:38:15.430Z,6.81
2023-12-16T18:40:42.136Z,6.82
2023-12-16T18:43:08.927Z,6.82
2023-12-16T18:45:37.556Z,6.84
2023-12-16T18:48:07.183Z,6.86
2023-12-16T18:50:34.054Z,6.87
2023-12-16T18:53:00.769Z,6.89
2023-12-16T18:55:27.573Z,6.91
2023-12-16T18:57:54.399Z,6.93
2023-12-16T19:00:21.323Z,6.95
2023-12-16T19:02:48.958Z,6.96
2023-12-16T19:05:15.957Z,6.94
2023-12-16T19:07:44.846Z,6.90
2023-12-16T19:10:12.215Z,6.85
2023-12-16T19:12:39.706Z,6.80
2023-12-16T19:15:06.831Z,6.75
2023-12-16T19:17:33.670Z,6.69
2023-12-16T19:20:00.729Z,6.63
2023-12-16T19:22:27.749Z,6.57
2023-12-16T19:24:54.536Z,6.50
2023-12-16T19:27:21.721Z,6.45
2023-12-16T19:29:49.756Z,6.42
2023-12-16T19:32:17.501Z,6.41
2023-12-16T19:34:47.186Z,6.40
2023-12-16T19:37:16.150Z,6.40
2023-12-16T19:39:43.015Z,6.40
2023-12-16T19:42:10.156Z,6.41
2023-12-16T19:44:39.074Z,6.39
2023-12-16T19:47:05.876Z,6.37
2023-12-16T19:49:33.024Z,6.36
2023-12-16T19:51:59.991Z,6.36
2023-12-16T19:54:26.782Z,6.35
2023-12-16T19:56:54.148Z,6.35
2023-12-16T19:59:21.957Z,6.36
2023-12-16T20:01:49.207Z,6.39
2023-12-16T20:04:16.624Z,6.41
2023-12-16T20:06:43.499Z,6.44
2023-12-16T20:09:10.686Z,6.47
2023-12-16T20:11:37.697Z,6.50
2023-12-16T20:14:05.253Z,6.55
2023-12-16T20:16:35.249Z,6.61
2023-12-16T20:19:02.544Z,6.67
2023-12-16T20:21:30.051Z,6.73
2023-12-16T20:23:58.131Z,6.77
2023-12-16T20:26:24.906Z,6.82
2023-12-16T20:28:53.327Z,6.86
2023-12-16T20:31:20.417Z,6.89
2023-12-16T20:33:47.725Z,6.92
2023-12-16T20:36:17.690Z,6.93
2023-12-16T20:39:04.281Z,6.92
2023-12-16T20:41:32.342Z,6.93
2023-12-16T20:43:59.192Z,6.94
2023-12-16T20:46:26.789Z,6.94
2023-12-16T20:48:55.585Z,6.94
2023-12-16T20:51:23.491Z,6.96
2023-12-16T20:53:50.386Z,6.99
2023-12-16T20:56:17.233Z,7.04
2023-12-16T20:58:45.030Z,7.07
2023-12-16T21:01:12.888Z,7.08
2023-12-16T21:03:39.974Z,7.11
2023-12-16T21:06:07.281Z,7.13
2023-12-16T21:08:34.241Z,7.16
2023-12-16T21:11:01.338Z,7.17
2023-12-16T21:13:29.311Z,7.19
2023-12-16T21:15:56.007Z,7.23
2023-12-16T21:18:23.198Z,7.26
2023-12-16T21:20:50.391Z,7.29
2023-12-16T21:23:18.002Z,7.32
2023-12-16T21:25:45.147Z,7.35
2023-12-16T21:28:14.156Z,7.36
2023-12-16T21:30:42.455Z,7.37
2023-12-16T21:33:10.098Z,7.38
2023-12-16T21:35:38.181Z,7.39
2023-12-16T21:38:06.761Z,7.40
2023-12-16T21:40:33.871Z,7.42
2023-12-16T21:43:02.731Z,7.44
2023-12-16T21:45:29.508Z,7.44
2023-12-16T21:47:56.477Z,7.45
2023-12-16T21:50:23.312Z,7.45
2023-12-16T21:52:50.101Z,7.45
2023-12-16T21:55:16.881Z,7.46
2023-12-16T21:57:43.627Z,7.47
2023-12-16T22:00:11.180Z,7.48
2023-12-16T22:02:39.173Z,7.49
2023-12-16T22:05:07.448Z,7.50
2023-12-16T22:07:34.895Z,7.50
2023-12-16T22:10:02.347Z,7.51
2023-12-16T22:12:29.093Z,7.54
2023-12-16T22:14:55.819Z,7.55
2023-12-16T22:17:22.701Z,7.57
2023-12-16T22:19:57.128Z,7.57
2023-12-16T22:22:25.474Z,7.58
2023-12-16T22:24:52.321Z,7.58
2023-12-16T22:27:19.221Z,7.60
2023-12-16T22:29:47.931Z,7.60
2023-12-16T22:32:14.978Z,7.61
2023-12-16T22:34:41.726Z,7.58
2023-12-16T22:37:08.513Z,7.51
2023-12-16T22:39:35.191Z,7.49
2023-12-16T22:42:02.572Z,7.49
2023-12-16T22:44:29.528Z,7.50
2023-12-16T22:46:56.277Z,7.52
2023-12-16T22:49:23.278Z,7.54
2023-12-16T22:51:50.309Z,7.57
2023-12-16T22:54:17.149Z,7.59
2023-12-16T22:56:43.892Z,7.62
2023-12-16T22:59:10.577Z,7.66
2023-12-16T23:01:37.311Z,7.69
2023-12-16T23:04:04.215Z,7.73
2023-12-16T23:06:31.119Z,7.76
2023-12-16T23:08:57.951Z,7.77
2023-12-16T23:11:24.716Z,7.78
2023-12-16T23:13:54.371Z,7.78
2023-12-16T23:16:21.333Z,7.78
2023-12-16T23:18:48.220Z,7.78
2023-12-16T23:21:15.021Z,7.80
2023-12-16T23:23:42.087Z,7.81
2023-12-16T23:26:08.862Z,7.79
2023-12-16T23:28:35.533Z,7.76
2023-12-16T23:31:08.810Z,7.75
2023-12-16T23:33:43.045Z,7.74
2023-12-16T23:36:10.093Z,7.75
2023-12-16T23:38:36.922Z,7.77
2023-12-16T23:41:04.076Z,7.78
2023-12-16T23:43:30.777Z,7.79
2023-12-16T23:45:57.501Z,7.79
2023-12-16T23:48:24.636Z,7.79
2023-12-16T23:50:51.676Z,7.79
2023-12-16T23:53:18.397Z,7.78
2023-12-16T23:55:45.175Z,7.77
2023-12-16T23:58:12.979Z,7.75
